Time;durP1;ratioP1;P1;durP2;ratioP2;P2;SDS_P1;SDS_P2;PMS_P1;PMS_P2;Temp;Humidity;BMP_temperature;BMP_pressure;BME280_temperature;BME280_humidity;BME280_pressure;Samples;Min_cycle;Max_cycle;Signal;HPM_P1;HPM_P2
2023/02/12 00:00:09;;;;;;;;;;;;;;;6.76;65.96;101927.53;1087990;54;19973;-81
2023/02/12 00:01:14;;;;;;;;;;;;;;;6.77;65.66;101927.44;1088546;47;19943;-82
2023/02/12 00:02:27;;;;;;;;;;;;;;;6.81;65.57;101925.50;1088516;47;19923;-82
2023/02/12 00:03:29;;;;;;;;;;;;;;;6.84;65.63;101922.72;1087934;54;19943;-81
2023/02/12 00:04:39;;;;;;;;;;;;;;;6.83;65.67;101926.31;1089611;47;20020;-81
2023/02/12 00:05:43;;;;;;;;;;;;;;;6.71;65.92;101922.44;1088001;54;19937;-81
2023/02/12 00:06:50;;;;;;;;;;;;;;;6.67;65.96;101924.41;1088670;47;19962;-81
2023/02/12 00:07:52;;;;;;;;;;;;;;;6.66;65.92;101930.63;1090966;47;19947;-82
2023/02/12 00:09:01;;;;;;;;;;;;;;;6.68;66.04;101931.44;1090725;47;19947;-81
2023/02/12 00:10:08;;;;;;;;;;;;;;;6.67;66.02;101931.50;1088376;47;19927;-81
2023/02/12 00:12:01;;;;;;;;;;;;;;;6.60;66.32;101932.72;1088400;47;19967;-81
2023/02/12 00:14:38;;;;;;;;;;;;;;;6.55;66.81;101931.16;1087706;54;19938;-80
2023/02/12 00:15:44;;;;;;;;;;;;;;;6.55;66.73;101931.16;1087656;54;19954;-80
2023/02/12 00:20:11;;;;;;;;;;;;;;;6.70;66.27;101934.00;1087560;54;19959;-81
2023/02/12 00:23:12;;;;;;;;;;;;;;;6.85;65.61;101937.72;1087908;54;19938;-81
2023/02/12 00:27:18;;;;;;;;;;;;;;;6.94;65.39;101931.97;1087698;54;20002;-78
2023/02/12 00:28:20;;;;;;;;;;;;;;;6.95;65.15;101938.13;1087761;39;20644;-80
2023/02/12 00:29:32;;;;;;;;;;;;;;;6.97;65.19;101931.81;1089043;46;19942;-82
2023/02/12 00:30:35;;;;;;;;;;;;;;;6.96;65.48;101937.19;1087889;54;19970;-83
2023/02/12 00:33:16;;;;;;;;;;;;;;;6.98;65.33;101936.22;1087855;54;19949;-82
2023/02/12 00:34:21;;;;;;;;;;;;;;;7.00;65.39;101929.00;1087750;54;19939;-82
2023/02/12 00:35:23;;;;;;;;;;;;;;;7.01;65.37;101930.72;1087822;54;19965;-80
2023/02/12 00:36:28;;;;;;;;;;;;;;;7.03;65.25;101934.16;1088077;54;19943;-83
2023/02/12 00:37:29;;;;;;;;;;;;;;;6.98;65.15;101938.00;1089754;46;19969;-81
2023/02/12 00:38:35;;;;;;;;;;;;;;;6.89;65.62;101933.13;1088119;54;19950;-83
2023/02/12 00:39:36;;;;;;;;;;;;;;;6.80;65.92;101934.44;1088064;54;19942;-81
2023/02/12 00:40:40;;;;;;;;;;;;;;;6.74;66.20;101940.03;1092329;39;20121;-80
2023/02/12 00:41:41;;;;;;;;;;;;;;;6.67;66.26;101927.06;1088073;54;19943;-81
2023/02/12 00:42:45;;;;;;;;;;;;;;;6.65;66.67;101928.91;1088166;54;19977;-82
2023/02/12 00:44:02;;;;;;;;;;;;;;;6.63;66.57;101936.09;1089175;46;19942;-80
2023/02/12 00:45:04;;;;;;;;;;;;;;;6.64;66.45;101932.50;1089537;46;19946;-80
2023/02/12 00:46:16;;;;;;;;;;;;;;;6.64;66.56;101936.97;1088194;47;19970;-82
2023/02/12 00:47:17;;;;;;;;;;;;;;;6.62;66.48;101929.06;1088257;54;19923;-81
2023/02/12 00:48:21;;;;;;;;;;;;;;;6.63;66.51;101933.44;1088214;54;19991;-81
2023/02/12 00:49:23;;;;;;;;;;;;;;;6.63;66.58;101936.09;1088624;46;19943;-82
2023/02/12 00:50:26;;;;;;;;;;;;;;;6.67;66.49;101932.38;1087627;54;19926;-81
2023/02/12 00:51:50;;;;;;;;;;;;;;;6.74;66.32;101934.72;1088269;54;19943;-82
2023/02/12 00:52:51;;;;;;;;;;;;;;;6.80;65.96;101915.84;1089088;46;19942;-82
2023/02/12 00:54:12;;;;;;;;;;;;;;;6.82;65.76;101933.44;1089742;46;19931;-82
2023/02/12 00:55:14;;;;;;;;;;;;;;;6.81;65.93;101938.78;1088327;54;19950;-83
2023/02/12 00:56:18;;;;;;;;;;;;;;;6.81;65.73;101931.69;1088719;46;19978;-81
2023/02/12 00:57:20;;;;;;;;;;;;;;;6.79;65.64;101938.03;1087958;54;19927;-80
2023/02/12 00:58:24;;;;;;;;;;;;;;;6.68;66.00;101931.44;1088028;54;19987;-82
2023/02/12 00:59:28;;;;;;;;;;;;;;;6.65;66.27;101928.06;1088138;54;19942;-82
2023/02/12 01:00:56;;;;;;;;;;;;;;;6.63;66.40;101933.44;1087967;54;19986;-83
2023/02/12 01:02:07;;;;;;;;;;;;;;;6.55;66.61;101936.47;1088254;54;19942;-83
2023/02/12 01:03:11;;;;;;;;;;;;;;;6.46;67.05;101928.06;1088333;54;19949;-82
2023/02/12 01:04:14;;;;;;;;;;;;;;;6.43;67.38;101925.53;1088289;54;19931;-83
2023/02/12 01:05:18;;;;;;;;;;;;;;;6.36;67.69;101925.84;1088170;54;19983;-81
2023/02/12 01:08:18;;;;;;;;;;;;;;;6.21;67.97;101931.88;1088232;54;19934;-83
2023/02/12 01:09:27;;;;;;;;;;;;;;;6.22;68.28;101938.91;1089907;46;19955;-81
2023/02/12 01:11:00;;;;;;;;;;;;;;;6.24;68.15;101943.22;1088079;54;19943;-82
2023/02/12 01:12:01;;;;;;;;;;;;;;;6.20;68.06;101941.59;1088121;54;20520;-81
2023/02/12 01:13:05;;;;;;;;;;;;;;;6.20;68.27;101938.94;1088025;54;19942;-80
2023/02/12 01:14:06;;;;;;;;;;;;;;;6.20;68.38;101943.41;1087998;54;19965;-80
2023/02/12 01:15:12;;;;;;;;;;;;;;;6.27;68.21;101947.50;1088415;39;20647;-82
2023/02/12 01:16:13;;;;;;;;;;;;;;;6.23;68.20;101944.13;1088033;54;19969;-81
2023/02/12 01:17:27;;;;;;;;;;;;;;;6.21;68.32;101945.16;1088090;54;19943;-83
2023/02/12 01:18:29;;;;;;;;;;;;;;;6.29;68.00;101948.31;1088235;54;19968;-82
2023/02/12 01:19:34;;;;;;;;;;;;;;;6.32;68.05;101945.53;1088323;54;19949;-81
2023/02/12 01:20:35;;;;;;;;;;;;;;;6.32;68.16;101939.34;1088253;54;19968;-82
2023/02/12 01:21:55;;;;;;;;;;;;;;;6.34;67.98;101946.28;1092442;31;20638;-82
2023/02/12 01:22:56;;;;;;;;;;;;;;;6.34;68.11;101942.78;1088368;54;19942;-82
2023/02/12 01:24:16;;;;;;;;;;;;;;;6.31;68.04;101941.13;1088353;54;19987;-81
2023/02/12 01:25:20;;;;;;;;;;;;;;;6.24;68.50;101942.31;1088248;54;19935;-81
2023/02/12 01:26:30;;;;;;;;;;;;;;;6.20;68.53;101940.75;1088374;54;19934;-82
2023/02/12 01:27:32;;;;;;;;;;;;;;;6.08;68.72;101937.72;1088239;54;20610;-81
2023/02/12 01:28:37;;;;;;;;;;;;;;;6.08;69.02;101937.72;1088169;54;20661;-80
2023/02/12 01:29:38;;;;;;;;;;;;;;;6.05;69.12;101945.81;1088196;54;19942;-80
2023/02/12 01:30:43;;;;;;;;;;;;;;;6.03;69.28;101950.34;1088292;54;20508;-80
2023/02/12 01:31:45;;;;;;;;;;;;;;;6.11;69.22;101941.19;1088104;46;19945;-80
2023/02/12 01:32:54;;;;;;;;;;;;;;;6.08;68.95;101948.34;1088074;54;19942;-81
2023/02/12 01:33:57;;;;;;;;;;;;;;;6.09;68.91;101944.75;1088272;54;19943;-80
2023/02/12 01:35:04;;;;;;;;;;;;;;;6.05;69.20;101945.81;1088287;54;20597;-82
2023/02/12 01:36:05;;;;;;;;;;;;;;;6.12;69.09;101937.59;1088312;54;19923;-81
2023/02/12 01:37:18;;;;;;;;;;;;;;;6.05;69.08;101940.50;1088266;54;20699;-81
2023/02/12 01:38:19;;;;;;;;;;;;;;;6.07;69.25;101935.16;1088071;54;19926;-80
2023/02/12 01:39:26;;;;;;;;;;;;;;;6.17;68.94;101940.88;1088074;54;19942;-81
2023/02/12 01:40:30;;;;;;;;;;;;;;;6.20;68.56;101940.75;1088021;54;19927;-81
2023/02/12 01:41:35;;;;;;;;;;;;;;;6.26;68.34;101944.94;1088046;54;19942;-81
2023/02/12 01:42:36;;;;;;;;;;;;;;;6.27;68.26;101939.53;1091039;46;19943;-82
2023/02/12 01:43:41;;;;;;;;;;;;;;;6.35;68.30;101941.84;1088480;46;19983;-81
2023/02/12 01:44:44;;;;;;;;;;;;;;;6.35;67.78;101949.81;1088185;54;19938;-81
2023/02/12 01:45:55;;;;;;;;;;;;;;;6.34;68.07;101946.28;1088081;54;19934;-81
2023/02/12 01:46:57;;;;;;;;;;;;;;;6.42;67.87;101942.44;1088050;54;19967;-81
2023/02/12 01:48:03;;;;;;;;;;;;;;;6.42;67.64;101937.97;1088059;54;19956;-81
2023/02/12 01:49:07;;;;;;;;;;;;;;;6.47;67.42;101943.06;1088224;54;19968;-81
2023/02/12 01:50:22;;;;;;;;;;;;;;;6.46;67.43;101936.91;1088224;54;20630;-82
2023/02/12 01:51:28;;;;;;;;;;;;;;;6.35;67.77;101934.72;1087402;54;19939;-81
2023/02/12 01:52:40;;;;;;;;;;;;;;;6.32;67.68;101934.00;1088217;54;20602;-82
2023/02/12 01:53:46;;;;;;;;;;;;;;;6.32;67.74;101939.34;1088147;54;19938;-81
2023/02/12 01:54:48;;;;;;;;;;;;;;;6.28;67.93;101930.66;1088177;54;19986;-81
2023/02/12 01:55:57;;;;;;;;;;;;;;;6.21;68.04;101931.88;1088300;54;19942;-81
2023/02/12 01:57:02;;;;;;;;;;;;;;;6.16;68.48;101931.19;1088268;54;19942;-81
2023/02/12 01:58:08;;;;;;;;;;;;;;;6.09;68.91;101933.28;1088255;54;19968;-81
2023/02/12 01:59:13;;;;;;;;;;;;;;;6.07;68.96;101936.00;1088284;54;19927;-82
2023/02/12 02:00:21;;;;;;;;;;;;;;;6.06;69.08;101923.66;1088184;54;19928;-81
2023/02/12 02:01:27;;;;;;;;;;;;;;;6.11;68.66;101926.09;1088420;54;19938;-82
2023/02/12 02:02:33;;;;;;;;;;;;;;;6.20;68.51;101916.84;1088321;54;19931;-83
2023/02/12 02:03:39;;;;;;;;;;;;;;;6.21;68.33;101922.09;1088322;54;19938;-83
2023/02/12 02:04:42;;;;;;;;;;;;;;;6.15;68.51;101932.13;1088315;54;19942;-84
2023/02/12 02:06:03;;;;;;;;;;;;;;;6.12;68.64;101919.84;1088317;54;19949;-82
2023/02/12 02:07:10;;;;;;;;;;;;;;;6.13;69.07;101928.69;1088224;54;19942;-84
2023/02/12 02:08:16;;;;;;;;;;;;;;;6.14;68.75;101927.78;1088297;54;20025;-83
2023/02/12 02:09:18;;;;;;;;;;;;;;;6.18;68.64;101932.00;1088296;54;19979;-82
2023/02/12 02:10:29;;;;;;;;;;;;;;;6.16;68.61;101928.53;1088233;54;19989;-82
2023/02/12 02:15:28;;;;;;;;;;;;;;;6.05;69.20;101934.34;1088285;54;19942;-83
2023/02/12 02:16:30;;;;;;;;;;;;;;;6.07;69.21;101927.19;1089846;46;19938;-83
2023/02/12 02:17:38;;;;;;;;;;;;;;;6.08;68.96;101928.91;1088272;54;19926;-83
2023/02/12 02:18:43;;;;;;;;;;;;;;;6.13;69.12;101926.91;1088301;54;19942;-83
2023/02/12 02:20:11;;;;;;;;;;;;;;;6.13;69.06;101924.25;1088260;54;19934;-83
2023/02/12 02:21:19;;;;;;;;;;;;;;;6.15;68.79;101921.50;1088199;54;19954;-83
2023/02/12 02:22:28;;;;;;;;;;;;;;;6.15;68.93;101921.50;1088221;54;19983;-82
2023/02/12 02:23:44;;;;;;;;;;;;;;;6.15;68.84;101911.75;1088283;54;19957;-82
2023/02/12 02:25:15;;;;;;;;;;;;;;;6.20;68.75;101917.72;1087993;54;20070;-83
2023/02/12 02:26:31;;;;;;;;;;;;;;;6.18;68.91;101910.75;1088247;54;19954;-83
2023/02/12 02:27:42;;;;;;;;;;;;;;;6.19;68.85;101921.28;1088266;54;19983;-83
2023/02/12 02:29:02;;;;;;;;;;;;;;;6.19;68.59;101917.78;1088251;54;19942;-83
2023/02/12 02:30:31;;;;;;;;;;;;;;;6.26;68.49;101916.56;1090142;46;20661;-82
2023/02/12 02:31:35;;;;;;;;;;;;;;;6.37;68.30;101922.25;1088008;54;20646;-84
2023/02/12 02:32:45;;;;;;;;;;;;;;;6.40;68.02;101916.81;1088211;54;19994;-83
2023/02/12 02:33:50;;;;;;;;;;;;;;;6.47;67.84;101916.50;1088149;54;19942;-83
2023/02/12 02:34:57;;;;;;;;;;;;;;;6.49;67.61;101911.97;1088959;46;19945;-82
2023/02/12 02:36:04;;;;;;;;;;;;;;;6.49;67.69;101920.81;1088118;54;19942;-81
2023/02/12 02:37:14;;;;;;;;;;;;;;;6.46;67.42;101923.63;1088018;54;19950;-81
2023/02/12 02:38:21;;;;;;;;;;;;;;;6.45;67.92;101923.69;1087981;54;19960;-81
2023/02/12 02:39:30;;;;;;;;;;;;;;;6.44;67.53;101922.81;1088112;54;19973;-82
2023/02/12 02:40:35;;;;;;;;;;;;;;;6.49;67.42;101915.50;1088131;54;19938;-81
2023/02/12 02:41:47;;;;;;;;;;;;;;;6.49;67.29;101914.63;1088187;47;19949;-82
2023/02/12 02:42:56;;;;;;;;;;;;;;;6.53;67.39;101910.88;1088235;54;19953;-82
2023/02/12 02:44:03;;;;;;;;;;;;;;;6.55;67.42;101914.34;1088137;54;19942;-83
2023/02/12 02:45:08;;;;;;;;;;;;;;;6.58;67.29;101911.53;1087930;54;19943;-82
2023/02/12 02:46:21;;;;;;;;;;;;;;;6.58;67.19;101913.31;1088206;54;19942;-82
2023/02/12 02:48:27;;;;;;;;;;;;;;;6.55;67.35;101907.25;1086893;54;19942;-80
2023/02/12 02:49:33;;;;;;;;;;;;;;;6.57;67.40;101901.84;1087861;39;20535;-78
2023/02/12 02:50:40;;;;;;;;;;;;;;;6.53;67.48;101908.22;1087616;54;19978;-81
2023/02/12 02:51:44;;;;;;;;;;;;;;;6.55;67.57;101906.38;1087644;54;19954;-80
2023/02/12 02:52:51;;;;;;;;;;;;;;;6.56;67.13;101905.44;1088643;39;20478;-81
2023/02/12 02:53:56;;;;;;;;;;;;;;;6.52;67.62;101909.16;1087575;54;20637;-80
2023/02/12 02:55:04;;;;;;;;;;;;;;;6.47;67.87;101905.88;1087634;54;19942;-79
2023/02/12 02:56:07;;;;;;;;;;;;;;;6.46;67.81;101912.13;1088694;46;19943;-80
2023/02/12 02:57:19;;;;;;;;;;;;;;;6.44;67.95;101916.63;1088194;31;20629;-80
2023/02/12 02:58:22;;;;;;;;;;;;;;;6.43;67.80;101920.22;1087596;54;19950;-80
2023/02/12 02:59:30;;;;;;;;;;;;;;;6.44;67.90;101916.63;1087541;54;20649;-81
2023/02/12 03:00:33;;;;;;;;;;;;;;;6.45;67.88;101921.03;1087553;54;19942;-79
2023/02/12 03:01:42;;;;;;;;;;;;;;;6.40;67.85;101921.22;1087579;54;20028;-80
2023/02/12 03:02:47;;;;;;;;;;;;;;;6.42;68.18;101922.03;1087644;54;19943;-81
2023/02/12 03:03:53;;;;;;;;;;;;;;;6.42;67.94;101924.69;1087583;54;20660;-80
2023/02/12 03:04:58;;;;;;;;;;;;;;;6.39;68.14;101936.31;1087597;54;19942;-81
2023/02/12 03:06:05;;;;;;;;;;;;;;;6.34;68.53;101927.69;1087562;54;19943;-80
2023/02/12 03:07:10;;;;;;;;;;;;;;;6.31;68.70;101933.16;1087560;54;19942;-81
2023/02/12 03:08:19;;;;;;;;;;;;;;;6.29;68.73;101924.41;1087646;54;19943;-81
2023/02/12 03:09:25;;;;;;;;;;;;;;;6.29;68.81;101924.41;1087635;54;20042;-79
2023/02/12 03:10:28;;;;;;;;;;;;;;;6.32;68.69;101926.94;1087536;54;19943;-79
2023/02/12 03:11:35;;;;;;;;;;;;;;;6.35;68.77;101933.88;1087689;54;19943;-79
2023/02/12 03:12:40;;;;;;;;;;;;;;;6.35;68.62;101928.56;1087610;54;19943;-80
2023/02/12 03:13:45;;;;;;;;;;;;;;;6.34;68.62;101938.31;1089420;46;19950;-80
2023/02/12 03:14:50;;;;;;;;;;;;;;;6.34;68.67;101932.16;1088783;46;19962;-79
2023/02/12 03:15:55;;;;;;;;;;;;;;;6.37;68.37;101932.88;1087470;54;19947;-79
2023/02/12 03:17:02;;;;;;;;;;;;;;;6.33;68.86;101936.59;1087597;54;20029;-79
2023/02/12 03:18:10;;;;;;;;;;;;;;;6.32;68.87;101940.22;1087551;54;19990;-79
2023/02/12 03:19:14;;;;;;;;;;;;;;;6.33;68.73;101930.44;1087607;54;19943;-79
2023/02/12 03:20:20;;;;;;;;;;;;;;;6.36;68.66;101938.28;1088225;46;19943;-81
2023/02/12 03:21:24;;;;;;;;;;;;;;;6.36;68.49;101933.81;1087511;54;19995;-79
2023/02/12 03:22:30;;;;;;;;;;;;;;;6.30;68.96;101928.78;1090671;39;20236;-80
2023/02/12 03:23:34;;;;;;;;;;;;;;;6.30;69.15;101928.78;1087626;54;19949;-79
2023/02/12 03:24:40;;;;;;;;;;;;;;;6.28;69.06;101927.13;1087504;54;19966;-80
2023/02/12 03:25:47;;;;;;;;;;;;;;;6.27;69.18;101938.69;1089516;47;19946;-79
2023/02/12 03:26:54;;;;;;;;;;;;;;;6.24;69.05;101932.59;1088890;47;19939;-79
2023/02/12 03:28:07;;;;;;;;;;;;;;;6.25;69.35;101933.44;1088215;46;19954;-80
2023/02/12 03:29:11;;;;;;;;;;;;;;;6.29;69.02;101929.72;1087555;54;19942;-79
2023/02/12 03:30:13;;;;;;;;;;;;;;;6.32;68.92;101926.03;1087545;54;19942;-79
2023/02/12 03:31:21;;;;;;;;;;;;;;;6.35;68.55;101921.44;1089988;39;20517;-79
2023/02/12 03:32:28;;;;;;;;;;;;;;;6.37;68.53;101921.41;1087643;54;19942;-80
2023/02/12 03:33:37;;;;;;;;;;;;;;;6.36;68.64;101930.31;1087569;54;19973;-79
2023/02/12 03:34:45;;;;;;;;;;;;;;;6.34;68.76;101922.38;1087644;54;19942;-79
2023/02/12 03:35:54;;;;;;;;;;;;;;;6.37;68.69;101929.38;1087559;54;19943;-79
2023/02/12 03:36:59;;;;;;;;;;;;;;;6.39;68.66;101919.50;1087637;47;19973;-80
2023/02/12 03:38:08;;;;;;;;;;;;;;;6.36;68.65;101930.31;1087752;39;20593;-80
2023/02/12 03:39:11;;;;;;;;;;;;;;;6.33;68.77;101923.31;1087586;54;19943;-81
2023/02/12 03:40:19;;;;;;;;;;;;;;;6.29;68.98;101932.38;1087525;54;19994;-79
2023/02/12 03:41:23;;;;;;;;;;;;;;;6.27;69.11;101923.59;1087629;54;19946;-79
2023/02/12 03:42:33;;;;;;;;;;;;;;;6.25;69.17;101933.44;1088438;47;19970;-79
2023/02/12 03:43:39;;;;;;;;;;;;;;;6.23;69.22;101935.31;1087568;54;19942;-80
2023/02/12 03:44:50;;;;;;;;;;;;;;;6.22;69.46;101933.59;1087540;54;20634;-79
2023/02/12 03:45:54;;;;;;;;;;;;;;;6.22;69.05;101928.28;1091439;39;20518;-81
2023/02/12 03:47:03;;;;;;;;;;;;;;;6.22;69.48;101925.63;1087569;54;19942;-79
2023/02/12 03:48:10;;;;;;;;;;;;;;;6.19;69.66;101925.75;1087491;54;19943;-81
2023/02/12 03:49:18;;;;;;;;;;;;;;;6.17;69.97;101927.63;1086842;54;19950;-80
2023/02/12 03:50:23;;;;;;;;;;;;;;;6.15;69.50;101929.47;1087488;54;20845;-79
2023/02/12 03:51:31;;;;;;;;;;;;;;;6.13;69.80;101940.16;1087470;54;19982;-78
2023/02/12 03:52:36;;;;;;;;;;;;;;;6.15;69.67;101937.44;1087961;47;19942;-78
2023/02/12 03:53:37;;;;;;;;;;;;;;;6.16;69.62;101939.16;1087490;54;19958;-79
2023/02/12 03:54:41;;;;;;;;;;;;;;;6.14;69.77;101930.44;1087634;47;20271;-78
2023/02/12 03:55:46;;;;;;;;;;;;;;;6.15;69.62;101934.78;1087878;54;19974;-79
2023/02/12 03:56:52;;;;;;;;;;;;;;;6.16;69.68;101937.38;1087905;54;19943;-78
2023/02/12 03:57:57;;;;;;;;;;;;;;;6.12;70.07;101929.63;1087870;54;19965;-79
2023/02/12 03:59:01;;;;;;;;;;;;;;;6.12;70.08;101934.94;1087872;54;19958;-79
2023/02/12 04:00:05;;;;;;;;;;;;;;;6.13;69.74;101929.56;1087940;54;19973;-79
2023/02/12 04:01:10;;;;;;;;;;;;;;;6.13;69.85;101940.16;1089387;39;20560;-81
2023/02/12 04:02:12;;;;;;;;;;;;;;;6.09;70.42;101939.44;1087938;54;20020;-79
2023/02/12 04:03:18;;;;;;;;;;;;;;;6.08;70.49;101934.22;1087944;54;19943;-79
2023/02/12 04:04:20;;;;;;;;;;;;;;;6.08;70.18;101937.72;1087927;54;19942;-79
2023/02/12 04:05:26;;;;;;;;;;;;;;;6.07;70.30;101937.81;1087914;54;20543;-81
2023/02/12 04:06:27;;;;;;;;;;;;;;;6.09;70.15;101941.25;1087870;54;19943;-81
2023/02/12 04:07:31;;;;;;;;;;;;;;;6.06;70.14;101947.53;1087952;54;19942;-80
2023/02/12 04:08:33;;;;;;;;;;;;;;;6.06;70.16;101936.06;1087985;54;19946;-81
2023/02/12 04:09:38;;;;;;;;;;;;;;;6.03;70.46;101938.84;1087934;54;20654;-81
2023/02/12 04:10:46;;;;;;;;;;;;;;;6.03;70.52;101946.81;1087890;39;20672;-80
2023/02/12 04:11:57;;;;;;;;;;;;;;;6.02;70.47;101947.75;1087954;54;19949;-80
2023/02/12 04:13:08;;;;;;;;;;;;;;;6.05;70.31;101950.28;1087943;54;20610;-81
2023/02/12 04:14:17;;;;;;;;;;;;;;;6.08;70.02;101944.84;1087941;54;20622;-81
2023/02/12 04:15:27;;;;;;;;;;;;;;;6.09;70.01;101944.75;1088012;54;19943;-79
2023/02/12 04:16:32;;;;;;;;;;;;;;;6.10;70.18;101945.63;1088292;39;20556;-80
2023/02/12 04:17:45;;;;;;;;;;;;;;;6.11;69.85;101943.84;1087782;54;20443;-80
2023/02/12 04:18:49;;;;;;;;;;;;;;;6.13;69.92;101936.66;1087925;54;19954;-80
2023/02/12 04:20:00;;;;;;;;;;;;;;;6.15;70.06;101938.31;1087876;54;19999;-80
2023/02/12 04:21:06;;;;;;;;;;;;;;;6.15;70.00;101948.06;1087898;54;19947;-80
2023/02/12 04:22:16;;;;;;;;;;;;;;;6.16;69.87;101949.78;1087887;54;19938;-79
2023/02/12 04:23:24;;;;;;;;;;;;;;;6.16;69.62;101947.13;1088671;39;20493;-80
2023/02/12 04:24:34;;;;;;;;;;;;;;;6.17;69.90;101947.09;1087884;54;20466;-80
2023/02/12 04:25:42;;;;;;;;;;;;;;;6.11;70.51;101951.81;1088049;39;20757;-80
2023/02/12 04:26:50;;;;;;;;;;;;;;;6.14;70.26;101954.34;1087912;54;19943;-80
2023/02/12 04:27:55;;;;;;;;;;;;;;;6.15;69.91;101950.72;1087902;54;19973;-79
2023/02/12 04:29:06;;;;;;;;;;;;;;;6.13;70.04;101949.94;1087844;54;20491;-79
2023/02/12 04:30:12;;;;;;;;;;;;;;;6.09;70.40;101955.38;1087883;54;19938;-80
2023/02/12 04:31:22;;;;;;;;;;;;;;;6.05;70.48;101959.09;1087761;54;19942;-79
2023/02/12 04:32:27;;;;;;;;;;;;;;;6.05;70.79;101959.09;1087921;54;19942;-79
2023/02/12 04:33:36;;;;;;;;;;;;;;;6.04;70.63;101957.41;1087890;54;19943;-79
2023/02/12 04:34:44;;;;;;;;;;;;;;;6.05;70.64;101959.09;1088293;47;19986;-79
2023/02/12 04:35:51;;;;;;;;;;;;;;;6.06;70.40;101957.31;1087895;54;19942;-79
2023/02/12 04:36:58;;;;;;;;;;;;;;;6.09;70.29;101958.03;1087863;54;19943;-79
2023/02/12 04:38:04;;;;;;;;;;;;;;;6.13;70.37;101955.25;1087856;54;19974;-80
2023/02/12 04:39:10;;;;;;;;;;;;;;;6.16;70.06;101944.47;1087885;54;19950;-80
2023/02/12 04:40:13;;;;;;;;;;;;;;;6.16;69.87;101957.75;1087827;54;19943;-79
2023/02/12 04:41:18;;;;;;;;;;;;;;;6.17;70.12;101956.81;1087842;54;19946;-79
2023/02/12 04:42:19;;;;;;;;;;;;;;;6.18;69.92;101963.88;1087835;54;19943;-79
2023/02/12 04:43:30;;;;;;;;;;;;;;;6.19;69.75;101961.13;1087888;54;19981;-79
2023/02/12 04:44:33;;;;;;;;;;;;;;;6.22;70.02;101963.66;1087872;54;19973;-79
2023/02/12 04:45:38;;;;;;;;;;;;;;;6.22;69.63;101961.00;1087842;54;19950;-79
2023/02/12 04:46:39;;;;;;;;;;;;;;;6.21;69.96;101963.75;1087869;54;19965;-80
2023/02/12 04:47:44;;;;;;;;;;;;;;;6.19;70.04;101963.78;1087879;54;20010;-81
2023/02/12 04:48:51;;;;;;;;;;;;;;;6.20;70.00;101962.84;1089792;39;20231;-81
2023/02/12 04:49:59;;;;;;;;;;;;;;;6.23;69.85;101953.91;1089599;39;20780;-80
2023/02/12 04:51:00;;;;;;;;;;;;;;;6.23;69.78;101961.88;1087846;54;19942;-80
2023/02/12 04:52:04;;;;;;;;;;;;;;;6.25;69.99;101965.31;1087927;54;19998;-79
2023/02/12 04:53:05;;;;;;;;;;;;;;;6.24;69.96;101958.25;1087948;54;19949;-79
2023/02/12 04:54:09;;;;;;;;;;;;;;;6.25;69.79;101960.00;1088483;46;19998;-79
2023/02/12 04:55:11;;;;;;;;;;;;;;;6.25;69.80;101960.00;1087934;54;20653;-80
2023/02/12 04:56:15;;;;;;;;;;;;;;;6.24;70.04;101958.25;1087857;54;19987;-80
2023/02/12 04:57:17;;;;;;;;;;;;;;;6.19;70.32;101957.63;1087946;54;19934;-80
2023/02/12 04:58:21;;;;;;;;;;;;;;;6.18;70.27;101962.09;1087929;54;21007;-80
2023/02/12 04:59:23;;;;;;;;;;;;;;;6.18;70.19;101963.88;1087920;54;19927;-79
2023/02/12 05:00:27;;;;;;;;;;;;;;;6.19;70.11;101954.97;1087877;54;20698;-80
2023/02/12 05:01:28;;;;;;;;;;;;;;;6.18;70.11;101962.09;1087813;54;20587;-80
2023/02/12 05:02:33;;;;;;;;;;;;;;;6.17;70.06;101952.41;1087837;54;19943;-81
2023/02/12 05:03:40;;;;;;;;;;;;;;;6.20;70.29;101962.84;1087842;54;19943;-80
2023/02/12 05:04:53;;;;;;;;;;;;;;;6.19;70.26;101950.50;1087839;54;20649;-81
2023/02/12 05:06:03;;;;;;;;;;;;;;;6.20;70.11;101957.53;1087783;54;19942;-79
2023/02/12 05:07:11;;;;;;;;;;;;;;;6.21;70.06;101953.13;1087764;46;19965;-79
2023/02/12 05:08:17;;;;;;;;;;;;;;;6.20;70.18;101957.53;1087852;54;19927;-80
2023/02/12 05:09:26;;;;;;;;;;;;;;;6.18;70.44;101955.91;1087869;54;19950;-80
2023/02/12 05:10:32;;;;;;;;;;;;;;;6.15;70.48;101954.25;1090137;39;20523;-80
2023/02/12 05:11:43;;;;;;;;;;;;;;;6.16;70.13;101947.13;1087778;54;19949;-80
2023/02/12 05:12:58;;;;;;;;;;;;;;;6.19;70.46;101954.97;1087827;54;19966;-80
2023/02/12 05:14:06;;;;;;;;;;;;;;;6.20;70.01;101952.22;1087867;54;19943;-81
2023/02/12 05:15:17;;;;;;;;;;;;;;;6.23;70.10;101957.41;1087853;54;20027;-80
2023/02/12 05:16:21;;;;;;;;;;;;;;;6.24;70.09;101945.88;1087779;54;19942;-79
2023/02/12 05:17:27;;;;;;;;;;;;;;;6.26;69.98;101944.94;1087792;54;19950;-79
2023/02/12 05:18:30;;;;;;;;;;;;;;;6.23;69.98;101940.63;1087782;54;19942;-79
2023/02/12 05:19:36;;;;;;;;;;;;;;;6.21;70.37;101951.31;1087816;54;19943;-79
2023/02/12 05:20:39;;;;;;;;;;;;;;;6.17;70.26;101946.19;1087883;54;19926;-79
2023/02/12 05:21:48;;;;;;;;;;;;;;;6.17;70.23;101952.41;1090345;31;20661;-79
2023/02/12 05:22:52;;;;;;;;;;;;;;;6.17;70.21;101959.47;1089736;39;20192;-79
2023/02/12 05:23:59;;;;;;;;;;;;;;;6.15;70.26;101948.94;1087847;54;19950;-80
2023/02/12 05:25:02;;;;;;;;;;;;;;;6.14;70.27;101954.34;1087875;54;19942;-79
2023/02/12 05:26:09;;;;;;;;;;;;;;;6.11;70.54;101952.66;1087776;54;19966;-79
2023/02/12 05:27:11;;;;;;;;;;;;;;;6.11;70.85;101957.13;1087772;54;19942;-80
2023/02/12 05:28:18;;;;;;;;;;;;;;;6.09;70.64;101957.19;1089275;39;20645;-80
2023/02/12 05:29:21;;;;;;;;;;;;;;;6.10;70.74;101953.56;1087807;54;19991;-80
2023/02/12 05:30:26;;;;;;;;;;;;;;;6.09;70.71;101951.88;1087776;54;19950;-79
2023/02/12 05:31:28;;;;;;;;;;;;;;;6.03;71.05;101950.34;1087753;54;19998;-80
2023/02/12 05:32:32;;;;;;;;;;;;;;;6.01;71.08;101960.19;1087865;54;19942;-79
2023/02/12 05:33:33;;;;;;;;;;;;;;;5.99;71.44;101958.50;1088667;46;19942;-80
2023/02/12 05:34:38;;;;;;;;;;;;;;;5.98;71.29;101947.00;1087735;54;20024;-80
2023/02/12 05:35:40;;;;;;;;;;;;;;;6.00;70.92;101955.81;1087590;54;19950;-79
2023/02/12 05:36:47;;;;;;;;;;;;;;;5.99;71.15;101959.38;1087711;54;19942;-79
2023/02/12 05:37:49;;;;;;;;;;;;;;;6.03;71.15;101960.97;1087915;39;20432;-79
2023/02/12 05:38:53;;;;;;;;;;;;;;;6.03;71.12;101952.13;1087677;54;19946;-79
2023/02/12 05:39:55;;;;;;;;;;;;;;;6.05;70.77;101953.78;1087781;54;19942;-79
2023/02/12 05:41:03;;;;;;;;;;;;;;;6.06;71.00;101955.50;1087684;54;19942;-80
2023/02/12 05:42:04;;;;;;;;;;;;;;;6.09;70.69;101960.69;1087714;54;19943;-79
2023/02/12 05:43:10;;;;;;;;;;;;;;;6.10;70.74;101956.22;1087778;54;20276;-81
2023/02/12 05:44:12;;;;;;;;;;;;;;;6.07;71.04;101956.38;1087768;54;19951;-80
2023/02/12 05:45:16;;;;;;;;;;;;;;;6.08;70.76;101958.97;1087809;54;19946;-80
2023/02/12 05:46:18;;;;;;;;;;;;;;;6.08;70.86;101958.13;1087710;54;19965;-80
2023/02/12 05:47:22;;;;;;;;;;;;;;;6.09;70.73;101960.69;1087766;54;19943;-81
2023/02/12 05:48:24;;;;;;;;;;;;;;;6.06;70.97;101959.97;1087729;54;19943;-80
2023/02/12 05:49:29;;;;;;;;;;;;;;;5.99;71.30;101961.16;1087765;54;19949;-80
2023/02/12 05:50:30;;;;;;;;;;;;;;;5.95;71.58;101968.41;1089384;46;19943;-80
2023/02/12 05:51:35;;;;;;;;;;;;;;;5.93;71.77;101960.47;1087487;54;19942;-82
2023/02/12 05:52:39;;;;;;;;;;;;;;;5.94;71.46;101959.56;1087456;54;20627;-83
2023/02/12 05:53:43;;;;;;;;;;;;;;;5.97;71.34;101961.19;1087550;54;20669;-81
2023/02/12 05:54:48;;;;;;;;;;;;;;;5.99;71.23;101964.69;1087559;54;19950;-80
2023/02/12 05:55:52;;;;;;;;;;;;;;;6.02;71.05;101966.34;1087555;54;19999;-80
2023/02/12 05:56:53;;;;;;;;;;;;;;;5.99;71.35;101964.69;1087586;54;19943;-79
2023/02/12 05:57:59;;;;;;;;;;;;;;;6.01;70.99;101964.63;1087552;54;20630;-80
2023/02/12 05:59:02;;;;;;;;;;;;;;;5.99;71.38;101964.69;1087615;54;19973;-82
2023/02/12 06:00:07;;;;;;;;;;;;;;;5.97;71.31;101966.50;1087872;46;20264;-79
2023/02/12 06:01:09;;;;;;;;;;;;;;;5.94;71.61;101964.88;1087564;54;19998;-79
2023/02/12 06:02:13;;;;;;;;;;;;;;;5.92;71.75;101964.06;1088913;46;19938;-79
2023/02/12 06:03:14;;;;;;;;;;;;;;;5.95;71.23;101968.41;1087520;54;19939;-79
2023/02/12 06:04:20;;;;;;;;;;;;;;;5.96;71.62;101970.09;1087739;46;20003;-80